createdAt,value
2018-07-23T00:02:07.860Z,53.00
2018-07-23T00:04:37.328Z,53.00
2018-07-23T00:07:07.574Z,53.00
2018-07-23T00:09:36.989Z,52.80
2018-07-23T00:12:06.414Z,53.30
2018-07-23T00:14:35.933Z,52.80
2018-07-23T00:17:05.503Z,52.20
2018-07-23T00:19:34.921Z,52.70
2018-07-23T00:22:04.504Z,52.30
2018-07-23T00:24:33.900Z,52.40
2018-07-23T00:27:03.997Z,52.50
2018-07-23T00:29:34.036Z,52.50
2018-07-23T00:32:03.534Z,52.20
2018-07-23T00:34:32.989Z,52.60
2018-07-23T00:37:05.913Z,52.30
2018-07-23T00:39:37.142Z,52.60
2018-07-23T00:42:06.582Z,52.30
2018-07-23T00:44:35.986Z,52.50
2018-07-23T00:47:05.976Z,52.20
2018-07-23T00:49:36.555Z,52.40
2018-07-23T00:52:06.845Z,52.30
2018-07-23T00:54:36.288Z,52.40
2018-07-23T00:57:05.895Z,52.10
2018-07-23T00:59:35.302Z,52.10
2018-07-23T01:02:05.566Z,52.30
2018-07-23T01:04:35.183Z,52.20
2018-07-23T01:07:04.852Z,52.20
2018-07-23T01:09:34.383Z,51.80
2018-07-23T01:12:04.890Z,52.00
2018-07-23T01:14:35.148Z,52.00
2018-07-23T01:17:04.721Z,52.30
2018-07-23T01:19:35.534Z,52.00
2018-07-23T01:22:08.552Z,51.90
2018-07-23T01:24:47.809Z,52.00
2018-07-23T01:27:22.272Z,52.00
2018-07-23T01:32:31.643Z,52.30
2018-07-23T01:35:14.006Z,52.00
2018-07-23T01:37:53.145Z,52.10
2018-07-23T01:40:28.150Z,52.20
2018-07-23T01:43:02.608Z,52.20
2018-07-23T01:45:36.406Z,51.80
2018-07-23T01:48:08.021Z,52.00
2018-07-23T01:50:44.193Z,51.70
2018-07-23T01:53:15.333Z,51.80
2018-07-23T01:55:46.292Z,51.90
2018-07-23T01:58:15.719Z,51.80
2018-07-23T02:00:45.107Z,52.00
2018-07-23T02:03:14.502Z,51.80
2018-07-23T02:05:43.914Z,51.90
2018-07-23T02:08:13.369Z,52.20
2018-07-23T02:10:42.783Z,51.80
2018-07-23T02:13:12.284Z,51.70
2018-07-23T02:15:41.845Z,51.90
2018-07-23T02:20:46.948Z,51.70
2018-07-23T02:23:17.114Z,51.70
2018-07-23T02:25:46.596Z,51.90
2018-07-23T02:28:16.356Z,51.70
2018-07-23T02:30:45.777Z,51.80
2018-07-23T02:33:15.231Z,51.80
2018-07-23T02:35:44.653Z,52.30
2018-07-23T02:38:14.089Z,51.90
2018-07-23T02:40:43.513Z,51.90
2018-07-23T02:43:13.021Z,52.10
2018-07-23T02:45:42.422Z,52.30
2018-07-23T02:48:11.844Z,52.60
2018-07-23T02:50:41.739Z,52.30
2018-07-23T02:53:11.334Z,52.50
2018-07-23T02:55:40.730Z,52.50
2018-07-23T02:58:10.151Z,52.50
2018-07-23T03:00:39.565Z,52.70
2018-07-23T03:03:09.837Z,52.70
2018-07-23T03:05:39.251Z,52.70
2018-07-23T03:08:08.699Z,52.90
2018-07-23T03:10:38.173Z,53.00
2018-07-23T03:13:08.108Z,53.00
2018-07-23T03:15:37.687Z,53.20
2018-07-23T03:18:07.168Z,53.20
2018-07-23T03:20:36.749Z,53.30
2018-07-23T03:25:35.182Z,53.40
2018-07-23T03:28:05.436Z,53.50
2018-07-23T03:30:34.850Z,53.50
2018-07-23T03:33:04.266Z,53.60
2018-07-23T03:35:33.746Z,53.80
2018-07-23T03:38:03.215Z,53.70
2018-07-23T03:40:32.730Z,53.80
2018-07-23T03:43:02.252Z,53.80
2018-07-23T03:45:31.693Z,53.90
2018-07-23T03:48:01.165Z,54.00
2018-07-23T03:50:30.565Z,54.10
2018-07-23T03:53:00.098Z,54.10
2018-07-23T03:55:29.497Z,54.20
2018-07-23T03:57:59.120Z,55.00
2018-07-23T04:00:28.565Z,54.30
2018-07-23T04:02:58.837Z,55.00
2018-07-23T04:05:28.293Z,54.40
2018-07-23T04:07:57.731Z,54.60
2018-07-23T04:10:27.180Z,54.70
2018-07-23T04:12:56.637Z,54.50
2018-07-23T04:15:26.163Z,54.80
2018-07-23T04:18:03.230Z,54.80
2018-07-23T04:20:35.108Z,55.00
2018-07-23T04:23:05.632Z,55.00
2018-07-23T04:25:35.139Z,55.20
2018-07-23T04:28:04.626Z,55.10
2018-07-23T04:30:34.133Z,55.20
2018-07-23T04:33:03.533Z,55.20
2018-07-23T04:35:32.991Z,55.40
2018-07-23T04:38:02.526Z,55.50
2018-07-23T04:40:32.013Z,55.60
2018-07-23T04:43:01.644Z,56.20
2018-07-23T04:45:31.090Z,55.50
2018-07-23T04:48:00.536Z,55.70
2018-07-23T04:50:30.000Z,55.80
2018-07-23T04:52:59.432Z,55.90
2018-07-23T04:55:29.008Z,55.80
2018-07-23T04:57:59.304Z,55.90
2018-07-23T05:00:28.715Z,56.00
2018-07-23T05:02:58.172Z,56.00
2018-07-23T05:05:27.684Z,56.20
2018-07-23T05:07:57.196Z,56.10
2018-07-23T05:10:26.634Z,56.20
2018-07-23T05:15:25.442Z,56.50
2018-07-23T05:17:55.743Z,56.60
2018-07-23T05:20:25.529Z,56.60
2018-07-23T05:22:55.395Z,56.60
2018-07-23T05:25:25.799Z,56.80
2018-07-23T05:27:55.281Z,57.00
2018-07-23T05:30:24.940Z,57.00
2018-07-23T05:32:54.380Z,57.30
2018-07-23T05:35:23.825Z,57.50
2018-07-23T05:37:53.427Z,57.60
2018-07-23T05:40:23.009Z,57.90
2018-07-23T05:42:52.633Z,57.80
2018-07-23T05:45:22.120Z,57.80
2018-07-23T05:47:51.593Z,58.10
2018-07-23T05:50:21.060Z,58.40
2018-07-23T05:52:51.295Z,58.60
2018-07-23T05:55:20.791Z,59.10
2018-07-23T05:57:50.194Z,58.80
2018-07-23T06:00:25.655Z,59.70
2018-07-23T06:02:55.130Z,59.30
2018-07-23T06:05:24.594Z,59.70
2018-07-23T06:07:54.132Z,59.90
2018-07-23T06:10:23.631Z,59.70
2018-07-23T06:12:53.545Z,59.70
2018-07-23T06:15:23.055Z,59.90
2018-07-23T06:17:52.464Z,59.60
2018-07-23T06:20:21.946Z,59.80
2018-07-23T06:22:51.391Z,60.20
2018-07-23T06:25:21.487Z,60.60
2018-07-23T06:27:54.628Z,61.00
2018-07-23T06:30:24.298Z,62.10
2018-07-23T06:32:54.050Z,61.10
2018-07-23T06:35:24.161Z,60.50
2018-07-23T06:37:54.558Z,61.30
2018-07-23T06:40:26.682Z,60.90
2018-07-23T06:42:56.176Z,61.20
2018-07-23T06:45:25.807Z,60.90
2018-07-23T06:47:56.641Z,61.90
2018-07-23T06:50:26.480Z,61.50
2018-07-23T06:53:03.334Z,61.40
2018-07-23T06:55:34.074Z,61.40
2018-07-23T06:58:03.645Z,61.50
2018-07-23T07:00:33.489Z,62.00
2018-07-23T07:03:03.661Z,62.00
2018-07-23T07:05:33.127Z,61.70
2018-07-23T07:08:02.572Z,62.00
2018-07-23T07:10:32.372Z,61.60
2018-07-23T07:13:01.798Z,61.70
2018-07-23T07:15:31.262Z,62.10
2018-07-23T07:18:00.742Z,62.10
2018-07-23T07:20:30.200Z,62.10
2018-07-23T07:22:59.672Z,61.60
2018-07-23T07:25:29.179Z,61.70
2018-07-23T07:27:58.617Z,61.70
2018-07-23T07:30:29.104Z,61.70
2018-07-23T07:33:02.401Z,61.60
2018-07-23T07:35:31.896Z,61.60
2018-07-23T07:38:01.369Z,61.90
2018-07-23T07:40:30.854Z,61.80
2018-07-23T07:43:01.851Z,61.50
2018-07-23T07:45:31.899Z,61.20
2018-07-23T07:48:01.631Z,61.40
2018-07-23T07:50:31.552Z,61.20
2018-07-23T07:53:01.020Z,61.50
2018-07-23T07:55:30.865Z,61.20
2018-07-23T07:58:00.494Z,61.50
2018-07-23T08:00:30.000Z,61.60
2018-07-23T08:02:59.653Z,61.20
2018-07-23T08:05:29.406Z,61.80
2018-07-23T08:07:59.048Z,61.60
2018-07-23T08:10:28.515Z,61.40
2018-07-23T08:12:58.018Z,61.40
2018-07-23T08:15:27.547Z,61.30
2018-07-23T08:17:57.065Z,61.90
2018-07-23T08:20:26.545Z,61.40
2018-07-23T08:22:56.086Z,61.50
2018-07-23T08:25:25.647Z,61.30
2018-07-23T08:27:55.316Z,61.10
2018-07-23T08:30:24.709Z,61.40
2018-07-23T08:32:54.268Z,61.30
2018-07-23T08:35:23.936Z,61.60
2018-07-23T08:37:53.725Z,61.50
2018-07-23T08:40:23.589Z,61.70
2018-07-23T08:42:53.312Z,61.70
2018-07-23T08:45:22.989Z,61.50
2018-07-23T08:47:52.943Z,61.60
2018-07-23T08:50:22.610Z,61.50
2018-07-23T08:52:52.273Z,61.70
2018-07-23T08:55:21.885Z,61.70
2018-07-23T08:57:51.389Z,61.70
2018-07-23T09:00:21.004Z,62.00
2018-07-23T09:02:50.962Z,61.80
2018-07-23T09:05:20.553Z,62.00
2018-07-23T09:07:50.013Z,61.80
2018-07-23T09:10:19.481Z,62.10
2018-07-23T09:12:48.957Z,61.90
2018-07-23T09:15:18.764Z,65.00
2018-07-23T09:17:49.057Z,65.40
2018-07-23T09:20:18.702Z,64.40
2018-07-23T09:22:48.201Z,63.60
2018-07-23T09:27:46.707Z,63.30
2018-07-23T09:30:21.880Z,63.10
2018-07-23T09:32:51.425Z,63.10
2018-07-23T09:35:20.940Z,63.30
2018-07-23T09:37:50.612Z,63.10
2018-07-23T09:40:20.144Z,63.00
2018-07-23T09:42:49.729Z,63.10
2018-07-23T09:45:19.410Z,62.90
2018-07-23T09:47:49.010Z,62.90
2018-07-23T09:50:18.523Z,62.80
2018-07-23T09:52:48.158Z,62.70
2018-07-23T09:55:17.765Z,62.60
2018-07-23T09:57:48.613Z,62.60
2018-07-23T10:00:25.056Z,62.50
2018-07-23T10:02:55.654Z,62.40
2018-07-23T10:05:25.786Z,62.40
2018-07-23T10:07:56.354Z,62.50
2018-07-23T10:10:27.037Z,62.30
2018-07-23T10:12:56.613Z,62.40
2018-07-23T10:15:26.188Z,62.40
2018-07-23T10:17:55.893Z,62.40
2018-07-23T10:20:29.698Z,62.60
2018-07-23T10:23:01.125Z,63.60
2018-07-23T10:25:39.873Z,63.20
2018-07-23T10:28:19.623Z,62.90
2018-07-23T10:30:57.082Z,62.90
2018-07-23T10:33:43.924Z,62.80
2018-07-23T10:36:25.060Z,62.80
2018-07-23T10:39:10.289Z,62.70
2018-07-23T10:42:02.262Z,62.60
2018-07-23T10:44:35.218Z,62.70
2018-07-23T10:47:16.881Z,62.60
2018-07-23T10:49:50.683Z,62.50
2018-07-23T10:52:47.063Z,62.40
2018-07-23T10:55:23.899Z,62.30
2018-07-23T10:57:59.145Z,62.30
2018-07-23T11:00:30.018Z,62.30
2018-07-23T11:03:04.460Z,62.20
2018-07-23T11:05:38.009Z,62.20
2018-07-23T11:08:15.985Z,62.20
2018-07-23T11:10:48.965Z,62.30
2018-07-23T11:13:20.726Z,62.20
2018-07-23T11:15:52.806Z,62.20
2018-07-23T11:18:24.646Z,62.10
2018-07-23T11:20:59.699Z,62.10
2018-07-23T11:23:44.061Z,62.50
2018-07-23T11:26:20.821Z,62.00
2018-07-23T11:29:13.683Z,62.00
2018-07-23T11:31:55.622Z,62.90
2018-07-23T11:34:37.178Z,62.10
2018-07-23T11:37:10.094Z,62.00
2018-07-23T11:39:50.061Z,62.10
2018-07-23T11:42:41.322Z,62.00
2018-07-23T11:45:34.729Z,62.00
2018-07-23T11:48:15.384Z,62.00
2018-07-23T11:50:49.636Z,61.90
2018-07-23T11:53:23.826Z,62.20
2018-07-23T11:55:58.312Z,62.30
2018-07-23T11:58:34.716Z,62.00
2018-07-23T12:01:08.678Z,61.90
2018-07-23T12:03:41.448Z,61.80
2018-07-23T12:06:16.912Z,61.70
2018-07-23T12:08:52.412Z,61.70
2018-07-23T12:11:32.283Z,61.70
2018-07-23T12:14:16.099Z,61.60
2018-07-23T12:16:56.863Z,61.60
2018-07-23T12:19:32.414Z,61.60
2018-07-23T12:22:12.514Z,61.50
2018-07-23T12:24:42.483Z,61.40
2018-07-23T12:27:12.131Z,61.50
2018-07-23T12:29:41.929Z,61.30
2018-07-23T12:32:11.683Z,61.30
2018-07-23T12:34:41.148Z,61.30
2018-07-23T12:37:11.092Z,61.30
2018-07-23T12:39:40.933Z,61.20
2018-07-23T12:44:39.818Z,61.20
2018-07-23T12:47:09.622Z,61.20
2018-07-23T12:49:39.354Z,61.10
2018-07-23T12:54:41.016Z,61.00
2018-07-23T12:57:10.849Z,61.00
2018-07-23T12:59:40.744Z,61.00
2018-07-23T13:02:10.236Z,61.00
2018-07-23T13:04:40.026Z,61.00
2018-07-23T13:07:09.531Z,60.90
2018-07-23T13:09:39.304Z,60.80
2018-07-23T13:12:09.432Z,60.90
2018-07-23T13:14:39.587Z,60.90
2018-07-23T13:17:09.034Z,60.80
2018-07-23T13:19:38.527Z,60.80
2018-07-23T13:22:08.354Z,60.60
2018-07-23T13:24:38.083Z,60.80
2018-07-23T13:27:08.544Z,60.60
2018-07-23T13:29:38.967Z,60.60
2018-07-23T13:32:08.682Z,60.60
2018-07-23T13:34:38.386Z,60.50
2018-07-23T13:37:08.248Z,60.60
2018-07-23T13:39:38.489Z,60.40
2018-07-23T13:42:08.039Z,60.40
2018-07-23T13:44:37.449Z,60.40
2018-07-23T13:47:06.969Z,60.30
2018-07-23T13:49:36.420Z,60.30
2018-07-23T13:52:06.738Z,60.40
2018-07-23T13:54:36.329Z,60.40
2018-07-23T13:57:06.185Z,60.30
2018-07-23T13:59:36.761Z,60.30
2018-07-23T14:02:06.278Z,60.20
2018-07-23T14:04:35.871Z,60.30
2018-07-23T14:07:05.726Z,60.30
2018-07-23T14:09:35.492Z,60.20
2018-07-23T14:12:05.335Z,60.30
2018-07-23T14:14:34.882Z,60.30
2018-07-23T14:17:04.574Z,60.20
2018-07-23T14:19:34.115Z,60.20
2018-07-23T14:22:03.618Z,60.10
2018-07-23T14:24:33.297Z,60.10
2018-07-23T14:27:03.220Z,60.10
2018-07-23T14:29:32.704Z,60.10
2018-07-23T14:32:02.175Z,60.00
2018-07-23T14:37:00.735Z,59.90
2018-07-23T14:39:30.145Z,59.90
2018-07-23T14:41:59.604Z,59.90
2018-07-23T14:44:29.170Z,59.90
2018-07-23T14:46:58.613Z,59.80
2018-07-23T14:49:28.394Z,59.80
2018-07-23T14:51:57.911Z,59.90
2018-07-23T14:54:27.531Z,59.90
2018-07-23T15:11:44.479Z,59.70
2018-07-23T15:14:18.826Z,59.70
2018-07-23T15:16:50.908Z,59.70
2018-07-23T15:19:23.071Z,59.60
2018-07-23T15:21:55.326Z,59.60
2018-07-23T15:24:27.499Z,59.60
2018-07-23T15:26:59.491Z,59.60
2018-07-23T15:29:31.432Z,59.50
2018-07-23T15:32:03.535Z,59.50
2018-07-23T15:34:36.012Z,59.40
2018-07-23T15:37:08.586Z,59.30
2018-07-23T15:39:40.746Z,59.40
2018-07-23T15:42:12.995Z,59.30
2018-07-23T15:44:45.565Z,59.40
2018-07-23T15:47:17.595Z,59.30
2018-07-23T15:49:49.946Z,59.30
2018-07-23T15:52:22.146Z,59.30
2018-07-23T15:54:54.327Z,59.40
2018-07-23T15:57:26.692Z,59.30
2018-07-23T15:59:59.167Z,59.20
2018-07-23T16:02:31.876Z,59.20
2018-07-23T16:05:04.391Z,59.30
2018-07-23T16:07:36.550Z,59.20
2018-07-23T16:10:08.665Z,59.10
2018-07-23T16:12:40.941Z,59.10
2018-07-23T16:15:12.949Z,59.10
2018-07-23T16:17:45.334Z,59.10
2018-07-23T16:20:17.661Z,59.20
2018-07-23T16:22:49.937Z,59.10
2018-07-23T16:25:21.791Z,59.10
2018-07-23T16:27:53.775Z,59.10
2018-07-23T16:30:27.673Z,59.10
2018-07-23T16:33:00.404Z,59.20
2018-07-23T16:35:32.758Z,59.20
2018-07-23T16:38:05.219Z,59.20
2018-07-23T16:40:37.235Z,59.20
2018-07-23T16:43:09.307Z,59.30
2018-07-23T16:45:41.469Z,59.30
2018-07-23T16:48:13.781Z,59.30
2018-07-23T16:50:45.949Z,59.30
2018-07-23T16:53:18.221Z,59.10
2018-07-23T16:55:50.301Z,59.30
2018-07-23T16:58:22.097Z,59.40
2018-07-23T17:00:54.257Z,59.40
2018-07-23T17:03:26.502Z,59.40
2018-07-23T17:05:58.654Z,59.40
2018-07-23T17:08:30.923Z,60.10
2018-07-23T17:11:02.963Z,59.40
2018-07-23T17:13:35.139Z,59.50
2018-07-23T17:16:07.474Z,59.50
2018-07-23T17:18:39.670Z,59.50
2018-07-23T17:21:12.111Z,59.50
2018-07-23T17:23:44.318Z,59.60
2018-07-23T17:26:16.564Z,59.60
2018-07-23T17:28:48.649Z,59.60
2018-07-23T17:31:20.657Z,59.60
2018-07-23T17:33:52.686Z,59.70
2018-07-23T17:38:55.908Z,59.70
2018-07-23T17:41:28.046Z,59.80
2018-07-23T17:44:00.168Z,59.80
2018-07-23T17:46:32.316Z,59.80
2018-07-23T17:49:04.740Z,59.90
2018-07-23T17:51:37.071Z,60.00
2018-07-23T17:54:09.376Z,60.10
2018-07-23T17:56:41.581Z,60.00
2018-07-23T17:59:13.738Z,60.10
2018-07-23T18:01:45.861Z,60.10
2018-07-23T18:04:18.116Z,60.90
2018-07-23T18:06:50.304Z,60.30
2018-07-23T18:09:23.124Z,60.30
2018-07-23T18:11:55.400Z,60.40
2018-07-23T18:14:27.706Z,60.40
2018-07-23T18:16:59.898Z,60.50
2018-07-23T18:19:32.014Z,60.50
2018-07-23T18:22:04.131Z,60.50
2018-07-23T18:24:36.310Z,60.50
2018-07-23T18:27:08.554Z,60.50
2018-07-23T18:29:40.654Z,60.50
2018-07-23T18:32:12.842Z,60.70
2018-07-23T18:34:45.098Z,60.40
2018-07-23T18:37:17.189Z,60.20
2018-07-23T18:39:49.969Z,60.50
2018-07-23T18:42:22.121Z,59.40
2018-07-23T18:44:54.322Z,59.20
2018-07-23T18:47:26.514Z,59.10
2018-07-23T18:50:00.115Z,58.80
2018-07-23T18:52:32.482Z,58.80
2018-07-23T18:55:04.919Z,58.70
2018-07-23T18:57:37.390Z,58.60
2018-07-23T19:00:09.623Z,58.60
2018-07-23T19:02:41.507Z,58.40
2018-07-23T19:07:44.628Z,58.30
2018-07-23T19:10:16.981Z,58.20
2018-07-23T19:12:49.235Z,58.30
2018-07-23T19:15:21.286Z,58.20
2018-07-23T19:17:53.368Z,58.20
2018-07-23T19:20:25.617Z,58.20
2018-07-23T19:22:57.932Z,58.20
2018-07-23T19:25:29.922Z,58.10
2018-07-23T19:28:02.040Z,58.10
2018-07-23T19:30:34.090Z,58.00
2018-07-23T19:33:06.218Z,57.90
2018-07-23T19:35:38.213Z,58.00
2018-07-23T19:38:10.339Z,57.80
2018-07-23T19:40:42.466Z,57.80
2018-07-23T19:43:14.614Z,57.70
2018-07-23T19:45:46.711Z,57.90
2018-07-23T19:48:18.938Z,57.90
2018-07-23T19:50:51.033Z,57.90
2018-07-23T19:53:23.793Z,57.90
2018-07-23T19:55:56.040Z,57.80
2018-07-23T19:58:28.146Z,57.80
2018-07-23T20:01:00.488Z,57.80
2018-07-23T20:03:33.137Z,57.70
2018-07-23T20:06:05.236Z,57.80
2018-07-23T20:08:37.402Z,57.50
2018-07-23T20:11:09.615Z,57.70
2018-07-23T20:13:41.940Z,57.60
2018-07-23T20:16:13.975Z,57.70
2018-07-23T20:18:46.039Z,57.60
2018-07-23T20:21:18.120Z,57.80
2018-07-23T20:23:50.276Z,57.60
2018-07-23T20:26:23.159Z,57.70
2018-07-23T20:28:55.343Z,57.50
2018-07-23T20:31:27.389Z,57.60
2018-07-23T20:33:59.534Z,57.70
2018-07-23T20:36:31.822Z,57.70
2018-07-23T20:39:04.178Z,57.60
2018-07-23T20:41:37.794Z,57.90
2018-07-23T20:44:15.649Z,57.60
2018-07-23T20:46:48.784Z,57.70
2018-07-23T20:49:26.578Z,57.60
2018-07-23T20:51:59.309Z,57.90
2018-07-23T20:54:31.391Z,59.50
2018-07-23T20:57:03.436Z,60.30
2018-07-23T20:59:35.516Z,61.10
2018-07-23T21:02:07.621Z,61.60
2018-07-23T21:04:39.698Z,62.70
2018-07-23T21:07:11.966Z,62.20
2018-07-23T21:09:45.921Z,62.60
2018-07-23T21:12:18.571Z,62.20
2018-07-23T21:14:51.252Z,61.40
2018-07-23T21:17:23.435Z,60.80
2018-07-23T21:19:55.683Z,60.30
2018-07-23T21:22:27.912Z,60.00
2018-07-23T21:24:59.869Z,59.70
2018-07-23T21:27:36.850Z,59.60
2018-07-23T21:30:09.841Z,59.60
2018-07-23T21:32:42.290Z,59.70
2018-07-23T21:35:14.141Z,59.40
2018-07-23T21:37:46.299Z,59.40
2018-07-23T21:40:18.364Z,59.40
2018-07-23T21:42:51.055Z,59.50
2018-07-23T21:45:23.183Z,59.30
2018-07-23T21:47:55.447Z,59.20
2018-07-23T21:50:27.672Z,58.80
2018-07-23T21:52:59.879Z,58.60
2018-07-23T21:55:32.137Z,58.50
2018-07-23T21:58:04.162Z,58.60
2018-07-23T22:00:37.537Z,58.90
2018-07-23T22:03:16.876Z,59.60
2018-07-23T22:05:49.109Z,58.60
2018-07-23T22:08:21.167Z,58.60
2018-07-23T22:10:53.327Z,58.60
2018-07-23T22:13:26.135Z,58.50
2018-07-23T22:15:58.222Z,58.80
2018-07-23T22:18:30.419Z,58.80
2018-07-23T22:21:02.832Z,58.80
2018-07-23T22:23:35.757Z,58.70
2018-07-23T22:26:08.482Z,59.10
2018-07-23T22:28:40.582Z,59.10
2018-07-23T22:31:12.910Z,59.00
2018-07-23T22:33:45.201Z,58.80
2018-07-23T22:36:17.588Z,58.80
2018-07-23T22:38:49.916Z,59.00
2018-07-23T22:41:21.959Z,59.00
2018-07-23T22:43:54.314Z,59.10
2018-07-23T22:46:26.579Z,59.00
2018-07-23T22:48:58.802Z,58.60
2018-07-23T22:51:31.041Z,58.90
2018-07-23T22:54:03.190Z,58.80
2018-07-23T22:56:35.385Z,58.70
2018-07-23T22:59:07.674Z,58.70
2018-07-23T23:01:39.912Z,58.70
2018-07-23T23:04:11.835Z,58.60
2018-07-23T23:06:43.995Z,57.80
2018-07-23T23:09:15.944Z,58.10
2018-07-23T23:11:47.929Z,58.10
2018-07-23T23:14:19.920Z,58.10
2018-07-23T23:16:51.969Z,58.30
2018-07-23T23:19:24.131Z,58.00
2018-07-23T23:21:56.349Z,58.50
2018-07-23T23:24:28.337Z,58.00
2018-07-23T23:27:00.269Z,58.20
2018-07-23T23:29:32.385Z,57.90
2018-07-23T23:32:04.341Z,57.60
2018-07-23T23:34:36.384Z,57.70
2018-07-23T23:37:08.585Z,57.90
2018-07-23T23:39:40.583Z,58.20
2018-07-23T23:42:12.655Z,58.50
2018-07-23T23:44:44.610Z,58.10
2018-07-23T23:47:16.656Z,57.90
2018-07-23T23:49:48.757Z,57.80
2018-07-23T23:52:20.956Z,57.70
2018-07-23T23:54:53.570Z,58.00
2018-07-23T23:57:32.645Z,58.40
